sensor_id;sensor_type;location;lat;lon;timestamp;P1;durP1;ratioP1;P2;durP2;ratioP2
19374;SDS011;9823;50.936;4.046;2023-03-23T00:00:58;7.77;;;3.90;;
19374;SDS011;9823;50.936;4.046;2023-03-23T00:03:25;6.67;;;4.07;;
19374;SDS011;9823;50.936;4.046;2023-03-23T00:05:56;6.20;;;4.03;;
19374;SDS011;9823;50.936;4.046;2023-03-23T00:08:24;6.77;;;4.33;;
19374;SDS011;9823;50.936;4.046;2023-03-23T00:10:53;7.70;;;4.30;;
19374;SDS011;9823;50.936;4.046;2023-03-23T00:13:25;8.27;;;4.40;;
19374;SDS011;9823;50.936;4.046;2023-03-23T00:15:54;8.30;;;4.70;;
19374;SDS011;9823;50.936;4.046;2023-03-23T00:18:22;5.43;;;4.17;;
19374;SDS011;9823;50.936;4.046;2023-03-23T00:20:55;6.03;;;4.23;;
19374;SDS011;9823;50.936;4.046;2023-03-23T00:23:25;8.70;;;4.60;;
19374;SDS011;9823;50.936;4.046;2023-03-23T00:25:53;6.73;;;4.23;;
19374;SDS011;9823;50.936;4.046;2023-03-23T00:28:21;8.57;;;4.17;;
19374;SDS011;9823;50.936;4.046;2023-03-23T00:31:00;6.73;;;4.20;;
19374;SDS011;9823;50.936;4.046;2023-03-23T00:33:27;6.20;;;4.23;;
19374;SDS011;9823;50.936;4.046;2023-03-23T00:35:56;7.73;;;3.90;;
19374;SDS011;9823;50.936;4.046;2023-03-23T00:38:22;6.13;;;4.07;;
19374;SDS011;9823;50.936;4.046;2023-03-23T00:40:55;5.30;;;3.50;;
19374;SDS011;9823;50.936;4.046;2023-03-23T00:43:24;6.93;;;4.27;;
19374;SDS011;9823;50.936;4.046;2023-03-23T00:45:56;9.20;;;4.40;;
19374;SDS011;9823;50.936;4.046;2023-03-23T00:48:26;5.90;;;3.73;;
19374;SDS011;9823;50.936;4.046;2023-03-23T00:50:52;6.17;;;3.40;;
19374;SDS011;9823;50.936;4.046;2023-03-23T00:53:18;7.40;;;4.00;;
19374;SDS011;9823;50.936;4.046;2023-03-23T00:55:45;6.73;;;3.80;;
19374;SDS011;9823;50.936;4.046;2023-03-23T00:58:12;5.20;;;3.30;;
19374;SDS011;9823;50.936;4.046;2023-03-23T01:00:38;7.03;;;3.50;;
19374;SDS011;9823;50.936;4.046;2023-03-23T01:03:07;4.77;;;3.00;;
19374;SDS011;9823;50.936;4.046;2023-03-23T01:05:39;5.00;;;2.90;;
19374;SDS011;9823;50.936;4.046;2023-03-23T01:08:08;7.30;;;2.80;;
19374;SDS011;9823;50.936;4.046;2023-03-23T01:10:35;5.40;;;2.90;;
19374;SDS011;9823;50.936;4.046;2023-03-23T01:13:04;4.43;;;2.93;;
19374;SDS011;9823;50.936;4.046;2023-03-23T01:15:30;4.87;;;3.00;;
19374;SDS011;9823;50.936;4.046;2023-03-23T01:17:57;7.47;;;3.30;;
19374;SDS011;9823;50.936;4.046;2023-03-23T01:20:23;4.73;;;3.10;;
19374;SDS011;9823;50.936;4.046;2023-03-23T01:22:51;4.23;;;2.83;;
19374;SDS011;9823;50.936;4.046;2023-03-23T01:25:18;3.80;;;2.83;;
19374;SDS011;9823;50.936;4.046;2023-03-23T01:27:44;6.77;;;3.17;;
19374;SDS011;9823;50.936;4.046;2023-03-23T01:30:11;4.13;;;2.90;;
19374;SDS011;9823;50.936;4.046;2023-03-23T01:32:37;6.30;;;3.60;;
19374;SDS011;9823;50.936;4.046;2023-03-23T01:35:03;5.53;;;2.90;;
19374;SDS011;9823;50.936;4.046;2023-03-23T01:37:30;5.37;;;3.10;;
19374;SDS011;9823;50.936;4.046;2023-03-23T01:39:56;4.33;;;2.93;;
19374;SDS011;9823;50.936;4.046;2023-03-23T01:42:25;3.83;;;2.80;;
19374;SDS011;9823;50.936;4.046;2023-03-23T01:47:20;3.93;;;2.67;;
19374;SDS011;9823;50.936;4.046;2023-03-23T01:49:48;4.47;;;2.57;;
19374;SDS011;9823;50.936;4.046;2023-03-23T01:52:22;4.07;;;2.43;;
19374;SDS011;9823;50.936;4.046;2023-03-23T01:54:50;6.80;;;2.77;;
19374;SDS011;9823;50.936;4.046;2023-03-23T01:57:20;4.40;;;2.90;;
19374;SDS011;9823;50.936;4.046;2023-03-23T01:59:49;5.07;;;2.70;;
19374;SDS011;9823;50.936;4.046;2023-03-23T02:02:16;4.90;;;2.10;;
19374;SDS011;9823;50.936;4.046;2023-03-23T02:04:42;4.27;;;2.37;;
19374;SDS011;9823;50.936;4.046;2023-03-23T02:07:09;5.97;;;2.70;;
19374;SDS011;9823;50.936;4.046;2023-03-23T02:09:37;4.60;;;2.00;;
19374;SDS011;9823;50.936;4.046;2023-03-23T02:12:10;5.30;;;2.30;;
19374;SDS011;9823;50.936;4.046;2023-03-23T02:14:37;2.87;;;1.90;;
19374;SDS011;9823;50.936;4.046;2023-03-23T02:17:16;7.77;;;2.00;;
19374;SDS011;9823;50.936;4.046;2023-03-23T02:30:08;5.23;;;2.10;;
19374;SDS011;9823;50.936;4.046;2023-03-23T02:32:41;5.73;;;1.90;;
19374;SDS011;9823;50.936;4.046;2023-03-23T02:35:15;4.27;;;1.63;;
19374;SDS011;9823;50.936;4.046;2023-03-23T02:37:46;3.30;;;1.70;;
19374;SDS011;9823;50.936;4.046;2023-03-23T02:40:21;7.20;;;1.80;;
19374;SDS011;9823;50.936;4.046;2023-03-23T02:42:53;6.10;;;1.60;;
19374;SDS011;9823;50.936;4.046;2023-03-23T02:45:20;3.03;;;1.60;;
19374;SDS011;9823;50.936;4.046;2023-03-23T02:47:50;5.77;;;1.80;;
19374;SDS011;9823;50.936;4.046;2023-03-23T02:50:17;4.93;;;1.67;;
19374;SDS011;9823;50.936;4.046;2023-03-23T02:52:46;10.10;;;1.80;;
19374;SDS011;9823;50.936;4.046;2023-03-23T02:55:14;5.20;;;1.50;;
19374;SDS011;9823;50.936;4.046;2023-03-23T02:57:40;6.07;;;1.70;;
19374;SDS011;9823;50.936;4.046;2023-03-23T03:00:10;4.57;;;1.57;;
19374;SDS011;9823;50.936;4.046;2023-03-23T03:02:38;5.47;;;1.73;;
19374;SDS011;9823;50.936;4.046;2023-03-23T03:17:52;4.07;;;1.50;;
19374;SDS011;9823;50.936;4.046;2023-03-23T03:20:24;4.30;;;1.77;;
19374;SDS011;9823;50.936;4.046;2023-03-23T03:22:54;2.60;;;1.30;;
19374;SDS011;9823;50.936;4.046;2023-03-23T03:25:21;4.67;;;1.70;;
19374;SDS011;9823;50.936;4.046;2023-03-23T03:27:48;5.77;;;1.50;;
19374;SDS011;9823;50.936;4.046;2023-03-23T03:30:25;4.37;;;1.30;;
19374;SDS011;9823;50.936;4.046;2023-03-23T03:32:52;4.37;;;1.60;;
19374;SDS011;9823;50.936;4.046;2023-03-23T03:35:22;5.07;;;1.47;;
19374;SDS011;9823;50.936;4.046;2023-03-23T03:37:49;4.73;;;1.50;;
19374;SDS011;9823;50.936;4.046;2023-03-23T03:40:17;7.13;;;1.40;;
19374;SDS011;9823;50.936;4.046;2023-03-23T03:42:44;4.00;;;1.40;;
19374;SDS011;9823;50.936;4.046;2023-03-23T03:45:14;3.90;;;1.50;;
19374;SDS011;9823;50.936;4.046;2023-03-23T03:47:43;3.60;;;1.60;;
19374;SDS011;9823;50.936;4.046;2023-03-23T03:50:09;5.80;;;1.53;;
19374;SDS011;9823;50.936;4.046;2023-03-23T03:52:37;6.57;;;1.57;;
19374;SDS011;9823;50.936;4.046;2023-03-23T03:55:05;5.03;;;1.50;;
19374;SDS011;9823;50.936;4.046;2023-03-23T03:57:32;3.60;;;1.53;;
19374;SDS011;9823;50.936;4.046;2023-03-23T03:59:58;3.37;;;1.30;;
19374;SDS011;9823;50.936;4.046;2023-03-23T04:02:24;6.10;;;1.73;;
19374;SDS011;9823;50.936;4.046;2023-03-23T04:04:57;4.40;;;1.37;;
19374;SDS011;9823;50.936;4.046;2023-03-23T04:07:28;8.10;;;1.73;;
19374;SDS011;9823;50.936;4.046;2023-03-23T04:10:04;3.73;;;1.60;;
19374;SDS011;9823;50.936;4.046;2023-03-23T04:12:30;7.73;;;1.70;;
19374;SDS011;9823;50.936;4.046;2023-03-23T04:14:57;9.43;;;2.20;;
19374;SDS011;9823;50.936;4.046;2023-03-23T04:17:23;3.00;;;1.30;;
19374;SDS011;9823;50.936;4.046;2023-03-23T04:19:51;4.80;;;1.40;;
19374;SDS011;9823;50.936;4.046;2023-03-23T04:22:17;6.70;;;1.60;;
19374;SDS011;9823;50.936;4.046;2023-03-23T04:24:43;4.23;;;1.67;;
19374;SDS011;9823;50.936;4.046;2023-03-23T04:27:09;7.50;;;1.83;;
19374;SDS011;9823;50.936;4.046;2023-03-23T04:29:38;5.57;;;1.60;;
19374;SDS011;9823;50.936;4.046;2023-03-23T04:32:04;7.03;;;1.43;;
19374;SDS011;9823;50.936;4.046;2023-03-23T04:34:32;10.20;;;2.30;;
19374;SDS011;9823;50.936;4.046;2023-03-23T04:37:02;7.70;;;2.23;;
19374;SDS011;9823;50.936;4.046;2023-03-23T04:39:28;8.30;;;1.77;;
19374;SDS011;9823;50.936;4.046;2023-03-23T04:41:58;5.70;;;1.67;;
19374;SDS011;9823;50.936;4.046;2023-03-23T04:44:26;6.90;;;1.67;;
19374;SDS011;9823;50.936;4.046;2023-03-23T04:46:52;8.67;;;1.97;;
19374;SDS011;9823;50.936;4.046;2023-03-23T04:49:19;10.40;;;2.10;;
19374;SDS011;9823;50.936;4.046;2023-03-23T04:51:47;5.83;;;1.60;;
19374;SDS011;9823;50.936;4.046;2023-03-23T04:54:15;9.57;;;1.80;;
19374;SDS011;9823;50.936;4.046;2023-03-23T04:56:44;10.13;;;1.70;;
19374;SDS011;9823;50.936;4.046;2023-03-23T04:59:10;8.33;;;1.90;;
19374;SDS011;9823;50.936;4.046;2023-03-23T05:01:38;5.90;;;1.70;;
19374;SDS011;9823;50.936;4.046;2023-03-23T05:04:05;6.03;;;1.53;;
19374;SDS011;9823;50.936;4.046;2023-03-23T05:06:40;5.23;;;1.53;;
19374;SDS011;9823;50.936;4.046;2023-03-23T05:09:09;7.00;;;1.80;;
19374;SDS011;9823;50.936;4.046;2023-03-23T05:11:35;8.87;;;1.60;;
19374;SDS011;9823;50.936;4.046;2023-03-23T05:14:03;6.27;;;1.70;;
19374;SDS011;9823;50.936;4.046;2023-03-23T05:16:29;6.67;;;1.93;;
19374;SDS011;9823;50.936;4.046;2023-03-23T05:18:55;6.37;;;1.60;;
19374;SDS011;9823;50.936;4.046;2023-03-23T05:21:26;7.03;;;1.80;;
19374;SDS011;9823;50.936;4.046;2023-03-23T05:23:53;7.93;;;2.10;;
19374;SDS011;9823;50.936;4.046;2023-03-23T05:26:19;4.10;;;1.43;;
19374;SDS011;9823;50.936;4.046;2023-03-23T05:28:46;8.67;;;1.53;;
19374;SDS011;9823;50.936;4.046;2023-03-23T05:31:17;8.60;;;2.00;;
19374;SDS011;9823;50.936;4.046;2023-03-23T05:33:43;4.80;;;1.50;;
19374;SDS011;9823;50.936;4.046;2023-03-23T05:36:10;4.70;;;1.60;;
19374;SDS011;9823;50.936;4.046;2023-03-23T05:38:38;6.10;;;1.77;;
19374;SDS011;9823;50.936;4.046;2023-03-23T05:41:07;9.03;;;1.83;;
19374;SDS011;9823;50.936;4.046;2023-03-23T05:43:35;8.03;;;1.90;;
19374;SDS011;9823;50.936;4.046;2023-03-23T05:46:01;7.73;;;1.87;;
19374;SDS011;9823;50.936;4.046;2023-03-23T05:48:27;11.40;;;1.73;;
19374;SDS011;9823;50.936;4.046;2023-03-23T05:50:53;7.57;;;1.87;;
19374;SDS011;9823;50.936;4.046;2023-03-23T05:53:20;7.87;;;1.73;;
19374;SDS011;9823;50.936;4.046;2023-03-23T05:55:48;9.33;;;1.63;;
19374;SDS011;9823;50.936;4.046;2023-03-23T05:58:14;5.53;;;1.80;;
19374;SDS011;9823;50.936;4.046;2023-03-23T06:00:40;7.90;;;1.77;;
19374;SDS011;9823;50.936;4.046;2023-03-23T06:03:06;9.13;;;2.03;;
19374;SDS011;9823;50.936;4.046;2023-03-23T06:05:33;7.07;;;1.60;;
19374;SDS011;9823;50.936;4.046;2023-03-23T06:07:59;8.67;;;1.77;;
19374;SDS011;9823;50.936;4.046;2023-03-23T06:10:25;3.57;;;1.20;;
19374;SDS011;9823;50.936;4.046;2023-03-23T06:12:51;2.67;;;1.00;;
19374;SDS011;9823;50.936;4.046;2023-03-23T06:15:18;2.53;;;0.60;;
19374;SDS011;9823;50.936;4.046;2023-03-23T06:17:44;2.93;;;0.83;;
19374;SDS011;9823;50.936;4.046;2023-03-23T06:20:13;4.00;;;0.80;;
19374;SDS011;9823;50.936;4.046;2023-03-23T06:22:45;2.20;;;0.70;;
19374;SDS011;9823;50.936;4.046;2023-03-23T06:25:12;1.83;;;0.80;;
19374;SDS011;9823;50.936;4.046;2023-03-23T06:27:38;2.20;;;0.87;;
19374;SDS011;9823;50.936;4.046;2023-03-23T06:30:04;3.80;;;1.00;;
19374;SDS011;9823;50.936;4.046;2023-03-23T06:32:31;4.13;;;1.10;;
19374;SDS011;9823;50.936;4.046;2023-03-23T06:34:57;4.10;;;1.20;;
19374;SDS011;9823;50.936;4.046;2023-03-23T06:37:26;2.83;;;1.10;;
19374;SDS011;9823;50.936;4.046;2023-03-23T06:39:52;6.83;;;1.10;;
19374;SDS011;9823;50.936;4.046;2023-03-23T06:42:18;3.50;;;0.90;;
19374;SDS011;9823;50.936;4.046;2023-03-23T06:44:47;3.50;;;1.10;;
19374;SDS011;9823;50.936;4.046;2023-03-23T06:47:13;3.90;;;1.10;;
19374;SDS011;9823;50.936;4.046;2023-03-23T06:49:39;3.27;;;0.70;;
19374;SDS011;9823;50.936;4.046;2023-03-23T06:52:05;4.67;;;1.03;;
19374;SDS011;9823;50.936;4.046;2023-03-23T06:54:31;3.93;;;1.10;;
19374;SDS011;9823;50.936;4.046;2023-03-23T06:56:57;2.57;;;0.90;;
19374;SDS011;9823;50.936;4.046;2023-03-23T06:59:23;2.93;;;1.10;;
19374;SDS011;9823;50.936;4.046;2023-03-23T07:01:52;3.13;;;1.00;;
19374;SDS011;9823;50.936;4.046;2023-03-23T07:04:21;4.10;;;1.10;;
19374;SDS011;9823;50.936;4.046;2023-03-23T07:06:48;3.83;;;0.90;;
19374;SDS011;9823;50.936;4.046;2023-03-23T07:09:14;6.60;;;1.17;;
19374;SDS011;9823;50.936;4.046;2023-03-23T07:11:43;3.43;;;1.20;;
19374;SDS011;9823;50.936;4.046;2023-03-23T07:14:10;4.93;;;1.33;;
19374;SDS011;9823;50.936;4.046;2023-03-23T07:16:36;5.33;;;1.10;;
19374;SDS011;9823;50.936;4.046;2023-03-23T07:19:03;4.53;;;1.20;;
19374;SDS011;9823;50.936;4.046;2023-03-23T07:21:31;4.60;;;1.50;;
19374;SDS011;9823;50.936;4.046;2023-03-23T07:23:57;4.43;;;1.30;;
19374;SDS011;9823;50.936;4.046;2023-03-23T07:26:23;4.23;;;1.10;;
19374;SDS011;9823;50.936;4.046;2023-03-23T07:28:49;3.50;;;1.07;;
19374;SDS011;9823;50.936;4.046;2023-03-23T07:31:15;4.83;;;1.30;;
19374;SDS011;9823;50.936;4.046;2023-03-23T07:33:44;7.30;;;1.17;;
19374;SDS011;9823;50.936;4.046;2023-03-23T07:36:12;5.00;;;1.10;;
19374;SDS011;9823;50.936;4.046;2023-03-23T07:38:38;3.57;;;1.20;;
19374;SDS011;9823;50.936;4.046;2023-03-23T07:41:05;3.57;;;1.40;;
19374;SDS011;9823;50.936;4.046;2023-03-23T07:43:32;5.07;;;1.40;;
19374;SDS011;9823;50.936;4.046;2023-03-23T07:45:58;6.53;;;1.60;;
19374;SDS011;9823;50.936;4.046;2023-03-23T07:48:24;5.30;;;1.30;;
19374;SDS011;9823;50.936;4.046;2023-03-23T07:50:50;4.67;;;1.50;;
19374;SDS011;9823;50.936;4.046;2023-03-23T07:53:18;3.30;;;1.30;;
19374;SDS011;9823;50.936;4.046;2023-03-23T07:55:46;12.00;;;1.90;;
19374;SDS011;9823;50.936;4.046;2023-03-23T07:58:12;7.10;;;1.37;;
19374;SDS011;9823;50.936;4.046;2023-03-23T08:00:43;5.17;;;1.50;;
19374;SDS011;9823;50.936;4.046;2023-03-23T08:03:10;6.03;;;1.80;;
19374;SDS011;9823;50.936;4.046;2023-03-23T08:05:37;5.67;;;1.50;;
19374;SDS011;9823;50.936;4.046;2023-03-23T08:08:03;5.10;;;1.47;;
19374;SDS011;9823;50.936;4.046;2023-03-23T08:10:32;5.43;;;1.40;;
19374;SDS011;9823;50.936;4.046;2023-03-23T08:13:01;5.50;;;1.40;;
19374;SDS011;9823;50.936;4.046;2023-03-23T08:15:27;7.17;;;1.47;;
19374;SDS011;9823;50.936;4.046;2023-03-23T08:17:53;8.43;;;1.60;;
19374;SDS011;9823;50.936;4.046;2023-03-23T08:20:22;6.83;;;1.60;;
19374;SDS011;9823;50.936;4.046;2023-03-23T08:22:54;4.17;;;1.30;;
19374;SDS011;9823;50.936;4.046;2023-03-23T08:25:21;4.20;;;1.20;;
19374;SDS011;9823;50.936;4.046;2023-03-23T08:27:48;5.17;;;1.40;;
19374;SDS011;9823;50.936;4.046;2023-03-23T08:30:16;4.03;;;1.60;;
19374;SDS011;9823;50.936;4.046;2023-03-23T08:32:42;5.07;;;1.50;;
19374;SDS011;9823;50.936;4.046;2023-03-23T08:35:12;7.77;;;1.90;;
19374;SDS011;9823;50.936;4.046;2023-03-23T08:37:40;7.10;;;2.10;;
19374;SDS011;9823;50.936;4.046;2023-03-23T08:40:07;5.27;;;1.57;;
19374;SDS011;9823;50.936;4.046;2023-03-23T08:42:36;5.33;;;1.80;;
19374;SDS011;9823;50.936;4.046;2023-03-23T08:45:04;6.07;;;1.40;;
19374;SDS011;9823;50.936;4.046;2023-03-23T08:47:30;7.13;;;2.17;;
19374;SDS011;9823;50.936;4.046;2023-03-23T08:49:56;6.73;;;1.50;;
19374;SDS011;9823;50.936;4.046;2023-03-23T08:52:25;4.30;;;1.43;;
19374;SDS011;9823;50.936;4.046;2023-03-23T08:57:35;6.43;;;1.23;;
19374;SDS011;9823;50.936;4.046;2023-03-23T09:00:02;5.63;;;1.30;;
19374;SDS011;9823;50.936;4.046;2023-03-23T09:02:41;5.33;;;1.30;;
19374;SDS011;9823;50.936;4.046;2023-03-23T09:05:17;5.07;;;1.30;;
19374;SDS011;9823;50.936;4.046;2023-03-23T09:07:44;4.20;;;1.47;;
19374;SDS011;9823;50.936;4.046;2023-03-23T09:10:14;4.50;;;1.23;;
19374;SDS011;9823;50.936;4.046;2023-03-23T09:12:40;6.27;;;1.20;;
19374;SDS011;9823;50.936;4.046;2023-03-23T09:15:07;4.23;;;1.37;;
19374;SDS011;9823;50.936;4.046;2023-03-23T09:17:35;4.63;;;1.50;;
19374;SDS011;9823;50.936;4.046;2023-03-23T09:20:01;4.67;;;1.60;;
19374;SDS011;9823;50.936;4.046;2023-03-23T09:22:30;3.83;;;1.47;;
19374;SDS011;9823;50.936;4.046;2023-03-23T09:24:56;3.37;;;1.40;;
19374;SDS011;9823;50.936;4.046;2023-03-23T09:27:22;5.13;;;1.80;;
19374;SDS011;9823;50.936;4.046;2023-03-23T09:29:51;6.87;;;1.83;;
19374;SDS011;9823;50.936;4.046;2023-03-23T09:32:17;3.67;;;1.70;;
19374;SDS011;9823;50.936;4.046;2023-03-23T09:34:47;4.70;;;1.47;;
19374;SDS011;9823;50.936;4.046;2023-03-23T09:37:16;3.90;;;1.50;;
19374;SDS011;9823;50.936;4.046;2023-03-23T09:39:42;3.93;;;1.57;;
19374;SDS011;9823;50.936;4.046;2023-03-23T09:50:14;3.63;;;1.60;;
19374;SDS011;9823;50.936;4.046;2023-03-23T09:52:52;6.23;;;1.70;;
19374;SDS011;9823;50.936;4.046;2023-03-23T09:55:19;4.30;;;1.60;;
19374;SDS011;9823;50.936;4.046;2023-03-23T09:57:51;4.73;;;1.80;;
19374;SDS011;9823;50.936;4.046;2023-03-23T10:02:59;5.73;;;1.57;;
19374;SDS011;9823;50.936;4.046;2023-03-23T10:05:33;4.00;;;1.50;;
19374;SDS011;9823;50.936;4.046;2023-03-23T10:08:08;6.43;;;1.90;;
19374;SDS011;9823;50.936;4.046;2023-03-23T10:13:33;6.17;;;1.90;;
19374;SDS011;9823;50.936;4.046;2023-03-23T10:16:02;8.47;;;1.80;;
19374;SDS011;9823;50.936;4.046;2023-03-23T10:21:02;6.20;;;2.57;;
19374;SDS011;9823;50.936;4.046;2023-03-23T10:28:37;7.07;;;2.10;;
19374;SDS011;9823;50.936;4.046;2023-03-23T10:31:04;9.27;;;2.07;;
19374;SDS011;9823;50.936;4.046;2023-03-23T10:33:42;5.07;;;1.80;;
19374;SDS011;9823;50.936;4.046;2023-03-23T10:36:14;7.80;;;2.33;;
19374;SDS011;9823;50.936;4.046;2023-03-23T10:41:12;6.70;;;1.70;;
19374;SDS011;9823;50.936;4.046;2023-03-23T10:43:41;4.07;;;1.80;;
19374;SDS011;9823;50.936;4.046;2023-03-23T10:48:53;6.40;;;2.63;;
19374;SDS011;9823;50.936;4.046;2023-03-23T10:51:22;12.77;;;3.10;;
19374;SDS011;9823;50.936;4.046;2023-03-23T10:53:50;10.50;;;2.77;;
19374;SDS011;9823;50.936;4.046;2023-03-23T10:56:39;12.77;;;2.90;;
19374;SDS011;9823;50.936;4.046;2023-03-23T10:59:14;9.23;;;3.10;;
19374;SDS011;9823;50.936;4.046;2023-03-23T11:01:42;12.83;;;3.07;;
19374;SDS011;9823;50.936;4.046;2023-03-23T11:04:15;8.17;;;2.90;;
19374;SDS011;9823;50.936;4.046;2023-03-23T11:06:46;11.07;;;2.70;;
19374;SDS011;9823;50.936;4.046;2023-03-23T11:09:19;9.27;;;2.40;;
19374;SDS011;9823;50.936;4.046;2023-03-23T11:11:52;10.37;;;3.00;;
19374;SDS011;9823;50.936;4.046;2023-03-23T11:17:03;9.17;;;2.47;;
19374;SDS011;9823;50.936;4.046;2023-03-23T11:19:34;9.87;;;3.10;;
19374;SDS011;9823;50.936;4.046;2023-03-23T11:24:34;13.20;;;2.73;;
19374;SDS011;9823;50.936;4.046;2023-03-23T11:27:01;8.00;;;2.80;;
19374;SDS011;9823;50.936;4.046;2023-03-23T11:29:34;9.90;;;3.10;;
19374;SDS011;9823;50.936;4.046;2023-03-23T11:34:32;9.43;;;2.77;;
19374;SDS011;9823;50.936;4.046;2023-03-23T11:41:54;13.20;;;2.87;;
19374;SDS011;9823;50.936;4.046;2023-03-23T11:44:24;12.73;;;3.17;;
19374;SDS011;9823;50.936;4.046;2023-03-23T11:52:03;7.83;;;2.47;;
19374;SDS011;9823;50.936;4.046;2023-03-23T11:54:35;13.00;;;2.20;;
19374;SDS011;9823;50.936;4.046;2023-03-23T11:57:06;8.07;;;3.07;;
19374;SDS011;9823;50.936;4.046;2023-03-23T11:59:33;6.87;;;2.40;;
19374;SDS011;9823;50.936;4.046;2023-03-23T12:14:48;9.70;;;2.13;;
19374;SDS011;9823;50.936;4.046;2023-03-23T12:17:29;8.47;;;2.17;;
19374;SDS011;9823;50.936;4.046;2023-03-23T12:25:33;10.17;;;2.43;;
19374;SDS011;9823;50.936;4.046;2023-03-23T12:41:16;11.37;;;2.40;;
19374;SDS011;9823;50.936;4.046;2023-03-23T12:48:46;9.23;;;1.93;;
19374;SDS011;9823;50.936;4.046;2023-03-23T12:51:20;6.50;;;2.20;;
19374;SDS011;9823;50.936;4.046;2023-03-23T12:53:54;10.17;;;2.30;;
19374;SDS011;9823;50.936;4.046;2023-03-23T13:04:37;9.53;;;2.20;;
19374;SDS011;9823;50.936;4.046;2023-03-23T13:07:05;8.10;;;1.77;;
19374;SDS011;9823;50.936;4.046;2023-03-23T13:12:19;9.73;;;2.20;;
19374;SDS011;9823;50.936;4.046;2023-03-23T13:14:53;7.60;;;2.27;;
19374;SDS011;9823;50.936;4.046;2023-03-23T13:17:26;8.00;;;2.10;;
19374;SDS011;9823;50.936;4.046;2023-03-23T13:22:26;7.80;;;2.17;;
19374;SDS011;9823;50.936;4.046;2023-03-23T13:24:57;6.70;;;2.00;;
19374;SDS011;9823;50.936;4.046;2023-03-23T13:27:24;8.90;;;2.27;;
19374;SDS011;9823;50.936;4.046;2023-03-23T13:29:53;7.27;;;1.80;;
19374;SDS011;9823;50.936;4.046;2023-03-23T13:32:20;7.40;;;2.10;;
19374;SDS011;9823;50.936;4.046;2023-03-23T13:34:46;9.07;;;2.27;;
19374;SDS011;9823;50.936;4.046;2023-03-23T13:40:25;10.87;;;2.37;;
19374;SDS011;9823;50.936;4.046;2023-03-23T13:42:36;10.20;;;2.20;;
19374;SDS011;9823;50.936;4.046;2023-03-23T13:47:49;11.50;;;1.93;;
19374;SDS011;9823;50.936;4.046;2023-03-23T14:03:09;9.53;;;2.50;;
19374;SDS011;9823;50.936;4.046;2023-03-23T14:05:37;8.70;;;2.47;;
19374;SDS011;9823;50.936;4.046;2023-03-23T14:10:44;11.03;;;2.23;;
19374;SDS011;9823;50.936;4.046;2023-03-23T14:13:25;16.50;;;2.80;;
19374;SDS011;9823;50.936;4.046;2023-03-23T14:15:56;14.50;;;2.63;;
19374;SDS011;9823;50.936;4.046;2023-03-23T14:18:23;12.43;;;2.00;;
19374;SDS011;9823;50.936;4.046;2023-03-23T14:20:51;7.63;;;2.07;;
19374;SDS011;9823;50.936;4.046;2023-03-23T14:23:19;10.07;;;2.30;;
19374;SDS011;9823;50.936;4.046;2023-03-23T14:25:54;11.87;;;2.33;;
19374;SDS011;9823;50.936;4.046;2023-03-23T14:28:20;13.37;;;2.80;;
19374;SDS011;9823;50.936;4.046;2023-03-23T14:30:52;8.13;;;1.93;;
19374;SDS011;9823;50.936;4.046;2023-03-23T14:33:19;7.60;;;2.17;;
19374;SDS011;9823;50.936;4.046;2023-03-23T14:35:47;7.67;;;1.97;;
19374;SDS011;9823;50.936;4.046;2023-03-23T14:38:15;14.40;;;2.73;;
19374;SDS011;9823;50.936;4.046;2023-03-23T14:40:43;7.73;;;2.00;;
19374;SDS011;9823;50.936;4.046;2023-03-23T14:43:10;10.97;;;2.17;;
19374;SDS011;9823;50.936;4.046;2023-03-23T14:45:37;9.30;;;2.53;;
19374;SDS011;9823;50.936;4.046;2023-03-23T14:48:03;10.93;;;2.73;;
19374;SDS011;9823;50.936;4.046;2023-03-23T14:50:42;14.87;;;2.97;;
19374;SDS011;9823;50.936;4.046;2023-03-23T14:55:41;10.83;;;2.60;;
19374;SDS011;9823;50.936;4.046;2023-03-23T14:58:08;14.23;;;2.93;;
19374;SDS011;9823;50.936;4.046;2023-03-23T15:00:45;8.97;;;2.07;;
19374;SDS011;9823;50.936;4.046;2023-03-23T15:03:19;9.40;;;2.70;;
19374;SDS011;9823;50.936;4.046;2023-03-23T15:05:49;10.63;;;2.53;;
19374;SDS011;9823;50.936;4.046;2023-03-23T15:08:19;15.23;;;3.03;;
19374;SDS011;9823;50.936;4.046;2023-03-23T15:10:58;12.47;;;2.77;;
19374;SDS011;9823;50.936;4.046;2023-03-23T15:13:28;6.83;;;2.20;;
19374;SDS011;9823;50.936;4.046;2023-03-23T15:16:00;13.90;;;3.67;;
19374;SDS011;9823;50.936;4.046;2023-03-23T15:18:36;15.37;;;2.90;;
19374;SDS011;9823;50.936;4.046;2023-03-23T15:21:19;10.03;;;2.90;;
19374;SDS011;9823;50.936;4.046;2023-03-23T15:23:45;9.13;;;2.57;;
19374;SDS011;9823;50.936;4.046;2023-03-23T15:26:23;14.90;;;2.80;;
19374;SDS011;9823;50.936;4.046;2023-03-23T15:28:50;12.17;;;2.87;;
19374;SDS011;9823;50.936;4.046;2023-03-23T15:31:26;9.63;;;2.57;;
19374;SDS011;9823;50.936;4.046;2023-03-23T15:33:55;13.10;;;2.70;;
19374;SDS011;9823;50.936;4.046;2023-03-23T15:36:22;9.90;;;2.70;;
19374;SDS011;9823;50.936;4.046;2023-03-23T15:38:48;13.80;;;2.87;;
19374;SDS011;9823;50.936;4.046;2023-03-23T15:41:22;14.67;;;3.47;;
19374;SDS011;9823;50.936;4.046;2023-03-23T15:43:52;13.43;;;2.80;;
19374;SDS011;9823;50.936;4.046;2023-03-23T15:46:20;14.37;;;3.60;;
19374;SDS011;9823;50.936;4.046;2023-03-23T15:48:50;13.37;;;3.13;;
19374;SDS011;9823;50.936;4.046;2023-03-23T15:51:19;13.70;;;2.93;;
19374;SDS011;9823;50.936;4.046;2023-03-23T15:53:46;16.00;;;3.30;;
19374;SDS011;9823;50.936;4.046;2023-03-23T15:56:12;11.20;;;2.97;;
19374;SDS011;9823;50.936;4.046;2023-03-23T15:58:41;14.73;;;3.07;;
19374;SDS011;9823;50.936;4.046;2023-03-23T16:01:10;15.93;;;3.50;;
19374;SDS011;9823;50.936;4.046;2023-03-23T16:06:03;11.27;;;2.70;;
19374;SDS011;9823;50.936;4.046;2023-03-23T16:08:29;9.87;;;3.03;;
19374;SDS011;9823;50.936;4.046;2023-03-23T16:10:57;10.80;;;2.47;;
19374;SDS011;9823;50.936;4.046;2023-03-23T16:13:24;11.70;;;3.03;;
19374;SDS011;9823;50.936;4.046;2023-03-23T16:15:51;11.37;;;3.03;;
19374;SDS011;9823;50.936;4.046;2023-03-23T16:18:19;8.83;;;2.27;;
19374;SDS011;9823;50.936;4.046;2023-03-23T16:20:46;9.43;;;2.30;;
19374;SDS011;9823;50.936;4.046;2023-03-23T16:23:12;6.53;;;2.20;;
19374;SDS011;9823;50.936;4.046;2023-03-23T16:25:40;10.47;;;2.67;;
19374;SDS011;9823;50.936;4.046;2023-03-23T16:28:10;11.13;;;2.13;;
19374;SDS011;9823;50.936;4.046;2023-03-23T16:30:37;9.33;;;1.97;;
19374;SDS011;9823;50.936;4.046;2023-03-23T16:33:03;9.43;;;2.37;;
19374;SDS011;9823;50.936;4.046;2023-03-23T16:35:29;9.93;;;2.37;;
19374;SDS011;9823;50.936;4.046;2023-03-23T16:37:55;7.53;;;2.07;;
19374;SDS011;9823;50.936;4.046;2023-03-23T16:40:24;7.00;;;1.60;;
19374;SDS011;9823;50.936;4.046;2023-03-23T16:42:51;9.87;;;2.40;;
19374;SDS011;9823;50.936;4.046;2023-03-23T16:45:17;9.90;;;2.30;;
19374;SDS011;9823;50.936;4.046;2023-03-23T16:47:43;7.30;;;2.03;;
19374;SDS011;9823;50.936;4.046;2023-03-23T16:50:13;8.70;;;2.30;;
19374;SDS011;9823;50.936;4.046;2023-03-23T16:52:43;8.10;;;2.27;;
19374;SDS011;9823;50.936;4.046;2023-03-23T16:55:11;10.23;;;2.33;;
19374;SDS011;9823;50.936;4.046;2023-03-23T16:57:38;10.17;;;2.03;;
19374;SDS011;9823;50.936;4.046;2023-03-23T17:00:05;9.70;;;2.53;;
19374;SDS011;9823;50.936;4.046;2023-03-23T17:02:33;9.07;;;2.53;;
19374;SDS011;9823;50.936;4.046;2023-03-23T17:05:01;9.27;;;2.23;;
19374;SDS011;9823;50.936;4.046;2023-03-23T17:07:27;14.03;;;2.93;;
19374;SDS011;9823;50.936;4.046;2023-03-23T17:09:56;9.03;;;2.17;;
19374;SDS011;9823;50.936;4.046;2023-03-23T17:12:22;12.00;;;2.50;;
19374;SDS011;9823;50.936;4.046;2023-03-23T17:14:51;10.43;;;2.47;;
19374;SDS011;9823;50.936;4.046;2023-03-23T17:17:17;11.27;;;2.50;;
19374;SDS011;9823;50.936;4.046;2023-03-23T17:19:45;11.17;;;3.53;;
19374;SDS011;9823;50.936;4.046;2023-03-23T17:22:11;14.27;;;2.37;;
19374;SDS011;9823;50.936;4.046;2023-03-23T17:24:37;12.23;;;2.80;;
19374;SDS011;9823;50.936;4.046;2023-03-23T17:27:03;16.77;;;3.33;;
19374;SDS011;9823;50.936;4.046;2023-03-23T17:29:29;11.10;;;3.00;;
19374;SDS011;9823;50.936;4.046;2023-03-23T17:31:55;20.63;;;3.20;;
19374;SDS011;9823;50.936;4.046;2023-03-23T17:34:24;14.83;;;3.10;;